Ana Sayfa
METAR-TAF:

METAR-TAF

Havaalanları :

Waterbury-Oxford Airport

Oxford, Connecticut, Amerika Birleşik Devletleri

Enlem: 41-29N, Boylam: 073-08W, yükseklik: 222 m

Güncel hava durumu gözlemi

Rapor saat 14:51 UTC de 50 dakika önce yapıldı.
Rüzgar güneydan 7 kt
Sıcaklık 20°C
Nem 100%
Basınç 1018 hPa
Görüş mesafesi: 4.8 km
300 ft yükseklikte çok bulutlu
Pus

METAR: KOXC 291451Z 18007KT 3SM BR OVC003 20/20 A3006 RMK AO2 SLP185 T02000200 58004

Saat: 11:41 (15:41 UTC)


TAF: eksik

4.000'den fazla havaalanı için hava durumu gözlemleri ve tahminleri (METAR ve TAF raporları).

Kullanılabilir istasyonlar harita üzerinde sarı ve kırmızı noktalarla gösterilir.

İstasyonun adını görmek için fareyi noktanın üzerinde gezdirin.

Sonrasında hava gözlem ve tahminlerini görmek için tıklayın.

Haritayı değiştirmek için: yaklaştırmak için siyah artı işaretli yeşil düğmeye ve uzaklaştırmak için de eksi işaretli düğmeye hızla tıklayın; bitişik haritalar için yeşil okları kullanın.


METAR-TAF: